Time;durP1;ratioP1;P1;durP2;ratioP2;P2;SDS_P1;SDS_P2;PMS_P1;PMS_P2;Temp;Humidity;BMP_temperature;BMP_pressure;BME280_temperature;BME280_humidity;BME280_pressure;Samples;Min_cycle;Max_cycle;Signal;HPM_P1;HPM_P2
2022/06/16 00:00:47;;;;;;;4.93;2.75;;;20.80;48.30;;;;;;5055084;28;20056;-68
2022/06/16 00:03:13;;;;;;;4.50;2.58;;;20.80;48.40;;;;;;5052890;28;20052;-69
2022/06/16 00:05:42;;;;;;;3.75;2.38;;;20.80;48.30;;;;;;5054778;28;20025;-69
2022/06/16 00:08:09;;;;;;;3.33;2.20;;;20.70;48.20;;;;;;5054901;28;20479;-69
2022/06/16 00:10:36;;;;;;;5.18;2.53;;;20.70;48.00;;;;;;5053914;28;20028;-69
2022/06/16 00:13:03;;;;;;;3.15;2.40;;;20.70;48.40;;;;;;5050522;28;20026;-71
2022/06/16 00:15:30;;;;;;;3.35;2.40;;;20.70;48.30;;;;;;5033682;28;20030;-70
2022/06/16 00:17:57;;;;;;;4.72;2.95;;;20.60;48.50;;;;;;5034843;28;20572;-68
2022/06/16 00:20:24;;;;;;;4.78;2.80;;;20.60;48.80;;;;;;5056035;28;20375;-68
2022/06/16 00:22:50;;;;;;;6.57;2.65;;;20.50;48.60;;;;;;5072484;28;20066;-69
2022/06/16 00:25:16;;;;;;;4.55;2.53;;;20.50;49.30;;;;;;5074470;28;20488;-68
2022/06/16 00:27:42;;;;;;;4.30;2.78;;;20.40;49.90;;;;;;5069027;28;20029;-68
2022/06/16 00:30:10;;;;;;;3.45;2.55;;;20.40;49.80;;;;;;5054683;28;20104;-69
2022/06/16 00:32:38;;;;;;;4.32;2.35;;;20.40;49.50;;;;;;5053251;28;20029;-68
2022/06/16 00:35:04;;;;;;;3.08;2.65;;;20.40;49.40;;;;;;5053100;28;20033;-69
2022/06/16 00:37:30;;;;;;;5.53;3.00;;;20.30;49.00;;;;;;5050607;28;20032;-68
2022/06/16 00:39:56;;;;;;;4.43;2.80;;;20.30;49.10;;;;;;5034772;28;20034;-68
2022/06/16 00:42:24;;;;;;;4.32;2.50;;;20.30;49.50;;;;;;5047625;28;20061;-70
2022/06/16 00:44:52;;;;;;;3.78;2.80;;;20.20;50.00;;;;;;5034681;28;20026;-68
2022/06/16 00:47:20;;;;;;;4.28;2.92;;;20.10;49.50;;;;;;5034435;28;20454;-69
2022/06/16 00:49:47;;;;;;;7.00;3.10;;;20.10;49.70;;;;;;5034051;28;20043;-68
2022/06/16 00:52:21;;;;;;;4.53;2.60;;;20.10;49.90;;;;;;5032773;28;20029;-73
2022/06/16 00:54:57;;;;;;;4.68;3.20;;;20.00;50.00;;;;;;5052831;28;20029;-69
2022/06/16 00:57:30;;;;;;;4.60;2.67;;;20.00;49.90;;;;;;5053944;28;20488;-69
2022/06/16 00:59:57;;;;;;;3.72;2.65;;;19.90;49.90;;;;;;5052866;28;20036;-68
2022/06/16 01:02:26;;;;;;;2.80;2.30;;;19.90;49.90;;;;;;5052053;28;20052;-68
2022/06/16 01:04:51;;;;;;;3.60;2.55;;;19.90;50.00;;;;;;5050916;28;20037;-68
2022/06/16 01:07:39;;;;;;;7.68;2.50;;;19.80;50.20;;;;;;5053846;28;20075;-68
2022/06/16 01:10:06;;;;;;;3.30;2.60;;;19.80;50.40;;;;;;5050982;28;20040;-69
2022/06/16 01:15:46;;;;;;;7.53;2.97;;;19.70;50.70;;;;;;5037266;28;20127;-68
2022/06/16 01:18:45;;;;;;;4.28;2.55;;;19.70;51.30;;;;;;5041925;28;20100;-68
2022/06/16 01:21:21;;;;;;;3.95;2.88;;;19.60;51.30;;;;;;5021484;28;20037;-68
2022/06/16 01:24:02;;;;;;;4.85;2.55;;;19.60;51.30;;;;;;5052272;28;20025;-68
2022/06/16 01:27:02;;;;;;;4.20;2.72;;;19.60;51.40;;;;;;5052051;28;20033;-68
2022/06/16 01:29:51;;;;;;;6.97;2.92;;;19.60;51.40;;;;;;5052520;28;20031;-68
2022/06/16 01:32:50;;;;;;;4.50;2.70;;;19.50;51.40;;;;;;5053589;28;20043;-69
2022/06/16 01:35:16;;;;;;;3.38;2.40;;;19.50;51.70;;;;;;5053319;28;20037;-68
2022/06/16 01:38:13;;;;;;;2.88;2.55;;;19.50;51.60;;;;;;5053250;28;20029;-68
2022/06/16 01:41:07;;;;;;;3.17;2.83;;;19.50;52.30;;;;;;5037453;28;20440;-71
2022/06/16 01:43:39;;;;;;;3.15;2.60;;;19.40;52.10;;;;;;5052227;28;20418;-68
2022/06/16 01:46:16;;;;;;;3.22;2.65;;;19.40;52.00;;;;;;5052379;28;20074;-68
2022/06/16 01:48:46;;;;;;;5.63;2.80;;;19.40;51.90;;;;;;5051167;28;20041;-68
2022/06/16 01:51:39;;;;;;;4.03;3.05;;;19.40;52.10;;;;;;5052885;28;20473;-68
2022/06/16 01:54:29;;;;;;;3.45;2.45;;;19.30;52.20;;;;;;5034356;28;20055;-68
2022/06/16 01:57:02;;;;;;;5.82;2.55;;;19.30;52.20;;;;;;5051771;28;20036;-69
2022/06/16 01:59:39;;;;;;;3.25;2.55;;;19.30;52.10;;;;;;5051928;28;20496;-69
2022/06/16 02:02:10;;;;;;;2.70;2.40;;;19.20;52.60;;;;;;5050014;28;20045;-69
2022/06/16 02:04:45;;;;;;;2.88;2.33;;;19.20;52.40;;;;;;5052135;28;20055;-68
2022/06/16 02:07:17;;;;;;;5.15;2.60;;;19.20;52.60;;;;;;5050401;28;20033;-68
2022/06/16 02:09:49;;;;;;;6.15;2.95;;;19.20;53.00;;;;;;5051597;28;20412;-70
2022/06/16 02:15:35;;;;;;;3.53;2.80;;;19.20;53.20;;;;;;5052777;28;20102;-70
2022/06/16 02:18:03;;;;;;;5.55;2.75;;;19.10;53.10;;;;;;5051548;28;20056;-68
2022/06/16 02:20:41;;;;;;;4.00;2.63;;;19.10;53.20;;;;;;5051833;28;20495;-69
2022/06/16 02:23:07;;;;;;;4.95;2.90;;;19.10;53.30;;;;;;5051457;28;20029;-68
2022/06/16 02:25:33;;;;;;;4.28;2.80;;;19.10;53.30;;;;;;5052636;28;20029;-68
2022/06/16 02:27:59;;;;;;;3.78;2.60;;;19.10;53.30;;;;;;5052348;28;20029;-68
2022/06/16 02:30:27;;;;;;;6.32;3.08;;;19.00;53.30;;;;;;5052735;28;20032;-68
2022/06/16 02:33:11;;;;;;;5.93;3.53;;;19.00;53.90;;;;;;5050894;28;20459;-69
2022/06/16 02:35:46;;;;;;;4.95;2.80;;;19.00;54.40;;;;;;5051375;28;20048;-69
2022/06/16 02:38:26;;;;;;;3.17;2.88;;;18.90;54.20;;;;;;5052431;28;20025;-69
2022/06/16 02:41:12;;;;;;;6.60;2.97;;;18.90;53.90;;;;;;5034814;28;20025;-71
2022/06/16 02:43:50;;;;;;;4.90;3.25;;;18.90;54.00;;;;;;5033461;28;20080;-68
2022/06/16 02:46:43;;;;;;;2.92;2.40;;;18.90;54.40;;;;;;5051139;28;20029;-69
2022/06/16 02:49:37;;;;;;;4.10;2.67;;;18.80;54.00;;;;;;5050576;28;20082;-68
2022/06/16 02:52:34;;;;;;;5.20;2.80;;;18.80;54.00;;;;;;5052372;28;20488;-68
2022/06/16 02:55:26;;;;;;;3.08;2.58;;;18.80;54.20;;;;;;5052276;28;20105;-68
2022/06/16 02:57:55;;;;;;;8.55;3.13;;;18.80;54.10;;;;;;5051377;28;20037;-68
2022/06/16 03:00:34;;;;;;;3.15;2.80;;;18.70;54.50;;;;;;5052540;28;20029;-68
2022/06/16 03:03:16;;;;;;;4.15;2.67;;;18.70;54.40;;;;;;5050860;28;20048;-69
2022/06/16 03:05:41;;;;;;;4.70;3.10;;;18.70;54.70;;;;;;5051143;28;20041;-68
2022/06/16 03:08:07;;;;;;;4.55;2.80;;;18.70;54.40;;;;;;5052521;28;20446;-68
2022/06/16 03:10:51;;;;;;;5.20;2.83;;;18.70;54.60;;;;;;5050519;28;20499;-68
2022/06/16 03:13:23;;;;;;;3.00;2.67;;;18.60;54.60;;;;;;5051262;28;20116;-69
2022/06/16 03:15:51;;;;;;;6.03;3.35;;;18.60;54.70;;;;;;5051091;28;20061;-68
2022/06/16 03:18:18;;;;;;;5.22;3.30;;;18.60;55.00;;;;;;5053622;28;20098;-68
2022/06/16 03:20:44;;;;;;;5.75;3.83;;;18.60;54.90;;;;;;5055412;28;20028;-70
2022/06/16 03:23:11;;;;;;;4.18;3.10;;;18.60;54.90;;;;;;5055134;28;20381;-68
2022/06/16 03:25:38;;;;;;;4.40;3.28;;;18.60;55.10;;;;;;5054459;28;20029;-68
2022/06/16 03:28:04;;;;;;;5.63;3.55;;;18.60;55.30;;;;;;5054438;28;20036;-68
2022/06/16 03:30:31;;;;;;;5.82;3.30;;;18.60;55.50;;;;;;5054251;28;20083;-69
2022/06/16 03:32:56;;;;;;;5.57;3.50;;;18.60;56.00;;;;;;5054271;28;20041;-70
2022/06/16 03:35:22;;;;;;;4.45;3.08;;;18.60;56.10;;;;;;5055052;28;20040;-68
2022/06/16 03:37:48;;;;;;;4.93;3.65;;;18.60;55.80;;;;;;5050034;28;20029;-69
2022/06/16 03:40:14;;;;;;;5.55;3.55;;;18.60;55.80;;;;;;5034399;28;20033;-68
2022/06/16 03:42:40;;;;;;;5.60;3.85;;;18.60;56.00;;;;;;5035563;28;20112;-68
2022/06/16 03:45:07;;;;;;;6.45;3.75;;;18.60;56.40;;;;;;5054123;28;20028;-69
2022/06/16 03:47:33;;;;;;;5.72;3.58;;;18.60;56.60;;;;;;5053844;28;20040;-68
2022/06/16 03:49:59;;;;;;;7.05;3.65;;;18.60;56.60;;;;;;5054182;28;20025;-68
2022/06/16 03:52:25;;;;;;;3.67;3.05;;;18.70;56.60;;;;;;5054138;28;20519;-69
2022/06/16 03:54:51;;;;;;;4.90;3.50;;;18.70;56.30;;;;;;5053665;28;20029;-68
2022/06/16 03:57:18;;;;;;;4.50;3.10;;;18.70;56.40;;;;;;5054529;28;20033;-69
2022/06/16 03:59:43;;;;;;;5.85;3.30;;;18.80;56.30;;;;;;5053277;28;20025;-68
2022/06/16 04:02:09;;;;;;;6.05;3.30;;;18.80;56.30;;;;;;5053398;28;20045;-68
2022/06/16 04:04:35;;;;;;;5.90;3.53;;;18.80;56.30;;;;;;5055226;28;20025;-68
2022/06/16 04:07:01;;;;;;;6.18;3.63;;;18.90;56.30;;;;;;5053724;28;20431;-68
2022/06/16 04:09:27;;;;;;;5.32;3.40;;;18.90;56.30;;;;;;5053070;28;20032;-71
2022/06/16 04:11:53;;;;;;;7.13;3.08;;;19.00;56.50;;;;;;5053541;28;20032;-68
2022/06/16 04:14:18;;;;;;;6.70;3.63;;;19.00;56.60;;;;;;5049290;28;20075;-68
2022/06/16 04:16:51;;;;;;;3.65;3.03;;;19.10;56.40;;;;;;5050539;28;20061;-68
2022/06/16 04:19:21;;;;;;;4.43;3.22;;;19.10;56.60;;;;;;5035097;28;20068;-68
2022/06/16 04:21:48;;;;;;;6.60;3.20;;;19.20;56.30;;;;;;5034979;28;20032;-69
2022/06/16 04:24:16;;;;;;;5.25;4.03;;;19.20;56.30;;;;;;5051293;28;20112;-69
2022/06/16 04:26:42;;;;;;;4.25;3.28;;;19.30;56.50;;;;;;5053374;28;20033;-68
2022/06/16 04:29:12;;;;;;;8.07;3.80;;;19.30;56.40;;;;;;5053106;28;20029;-68
2022/06/16 04:31:38;;;;;;;4.50;3.80;;;19.40;56.50;;;;;;5053332;28;20078;-68
2022/06/16 04:34:04;;;;;;;5.32;4.07;;;19.40;56.60;;;;;;5054400;28;20094;-68
2022/06/16 04:36:31;;;;;;;6.40;3.78;;;19.50;56.60;;;;;;5051919;28;20465;-70
2022/06/16 04:38:58;;;;;;;5.60;3.35;;;19.50;56.50;;;;;;5053250;28;20032;-69
2022/06/16 04:41:24;;;;;;;8.70;3.20;;;19.50;56.40;;;;;;5053225;28;20025;-69
2022/06/16 04:43:50;;;;;;;6.35;3.65;;;19.60;56.10;;;;;;5054157;28;20376;-69
2022/06/16 04:46:18;;;;;;;5.07;3.75;;;19.60;56.00;;;;;;5053045;28;20127;-69
2022/06/16 04:48:44;;;;;;;7.22;3.80;;;19.70;56.00;;;;;;5052131;28;20033;-69
2022/06/16 04:51:12;;;;;;;6.43;3.70;;;19.70;56.50;;;;;;5054086;28;20343;-69
2022/06/16 04:53:38;;;;;;;5.80;3.60;;;19.80;55.80;;;;;;5052703;28;20449;-69
2022/06/16 04:56:06;;;;;;;5.80;3.72;;;19.90;55.70;;;;;;5052692;28;20400;-69
2022/06/16 04:58:32;;;;;;;4.15;3.22;;;19.90;55.50;;;;;;5052722;28;20029;-69
2022/06/16 05:00:57;;;;;;;5.35;3.50;;;20.00;55.30;;;;;;5052107;28;20032;-69
2022/06/16 05:03:26;;;;;;;4.78;3.47;;;20.10;55.30;;;;;;5051335;28;20519;-69
2022/06/16 05:05:53;;;;;;;9.05;4.00;;;20.10;55.40;;;;;;5032350;28;20052;-69
2022/06/16 05:08:19;;;;;;;5.63;3.72;;;20.20;55.30;;;;;;5033877;28;20068;-69
2022/06/16 05:10:47;;;;;;;5.88;3.97;;;20.30;55.20;;;;;;5046591;28;20025;-70
2022/06/16 05:13:13;;;;;;;6.65;3.78;;;20.30;55.00;;;;;;5053166;28;20021;-69
2022/06/16 05:15:39;;;;;;;9.00;3.33;;;20.40;55.10;;;;;;5053516;28;20061;-71
2022/06/16 05:18:05;;;;;;;4.15;3.45;;;20.50;55.00;;;;;;5052400;28;20052;-69
2022/06/16 05:20:32;;;;;;;6.13;3.70;;;20.50;55.00;;;;;;5053263;28;20473;-69
2022/06/16 05:22:57;;;;;;;8.57;3.95;;;20.60;55.00;;;;;;5052239;28;20025;-70
2022/06/16 05:25:24;;;;;;;6.07;4.03;;;20.70;54.90;;;;;;5051603;28;20059;-70
2022/06/16 05:27:49;;;;;;;6.57;4.18;;;20.80;55.10;;;;;;5052153;28;20432;-69
2022/06/16 05:30:15;;;;;;;6.93;4.25;;;20.90;55.10;;;;;;5050922;28;20108;-70
2022/06/16 05:32:42;;;;;;;8.68;4.85;;;21.00;55.00;;;;;;5053698;28;20033;-69
2022/06/16 05:35:08;;;;;;;7.53;5.43;;;21.00;54.90;;;;;;5047014;28;20445;-71
2022/06/16 05:37:34;;;;;;;8.25;5.05;;;21.20;54.90;;;;;;5050473;28;20061;-69
2022/06/16 05:40:01;;;;;;;8.77;5.28;;;21.30;54.70;;;;;;5052050;28;20195;-69
2022/06/16 05:42:27;;;;;;;12.30;6.22;;;21.40;54.50;;;;;;5051048;28;20036;-69
2022/06/16 05:44:52;;;;;;;12.68;7.32;;;21.50;54.40;;;;;;5051863;28;20025;-69
2022/06/16 05:47:18;;;;;;;15.77;8.65;;;21.60;54.10;;;;;;5051800;28;20035;-69
2022/06/16 05:49:44;;;;;;;20.00;10.90;;;21.70;53.80;;;;;;5052835;28;20514;-70
2022/06/16 05:52:14;;;;;;;19.77;11.68;;;21.90;53.60;;;;;;5052892;28;20136;-70
2022/06/16 05:54:40;;;;;;;17.88;11.20;;;22.00;53.50;;;;;;5045557;28;20040;-69
2022/06/16 05:57:08;;;;;;;21.90;14.05;;;22.20;53.50;;;;;;5044716;28;20473;-69
2022/06/16 05:59:35;;;;;;;22.48;14.60;;;22.30;53.10;;;;;;5040424;28;20014;-69
2022/06/16 06:02:01;;;;;;;23.27;16.10;;;22.60;52.70;;;;;;5052750;28;20099;-69
2022/06/16 06:04:28;;;;;;;24.67;13.88;;;22.70;51.90;;;;;;5052066;28;20416;-70
2022/06/16 06:06:54;;;;;;;21.33;14.15;;;22.80;51.50;;;;;;5050858;28;20029;-69
2022/06/16 06:17:35;;;;;;;26.23;17.60;;;23.10;50.50;;;;;;5051169;28;20183;-70
2022/06/16 06:20:01;;;;;;;28.00;18.00;;;23.10;50.40;;;;;;5053053;28;20028;-69
2022/06/16 06:22:27;;;;;;;24.23;16.98;;;23.20;50.40;;;;;;5053287;28;20384;-70
2022/06/16 06:24:57;;;;;;;27.38;18.48;;;23.20;50.40;;;;;;5051955;28;20025;-70
2022/06/16 06:27:36;;;;;;;28.25;18.45;;;23.30;50.40;;;;;;5050817;28;20033;-70
2022/06/16 06:30:24;;;;;;;30.17;18.73;;;23.30;50.40;;;;;;5050571;28;20369;-70
2022/06/16 06:32:50;;;;;;;27.55;19.60;;;23.30;50.20;;;;;;5051539;28;20029;-70
2022/06/16 06:35:16;;;;;;;26.85;16.88;;;23.30;49.60;;;;;;5034899;28;20075;-72
2022/06/16 06:37:43;;;;;;;25.10;18.10;;;23.40;49.70;;;;;;5032638;28;20497;-70
2022/06/16 06:40:32;;;;;;;24.67;15.77;;;23.40;49.70;;;;;;5041222;28;20109;-71
2022/06/16 06:42:58;;;;;;;17.30;11.13;;;23.40;49.80;;;;;;5052983;28;20047;-70
2022/06/16 06:45:24;;;;;;;12.80;9.10;;;23.50;49.40;;;;;;5050911;28;20116;-70
2022/06/16 06:47:51;;;;;;;13.15;7.82;;;23.60;49.30;;;;;;5051350;28;20036;-72
2022/06/16 06:50:29;;;;;;;12.50;8.82;;;23.70;48.90;;;;;;5051504;28;20166;-70
2022/06/16 06:52:55;;;;;;;17.70;12.50;;;23.80;48.80;;;;;;5055787;28;20029;-70
2022/06/16 06:55:22;;;;;;;20.92;13.98;;;23.90;48.70;;;;;;5056501;28;20029;-71
2022/06/16 06:57:52;;;;;;;27.90;16.48;;;24.00;48.60;;;;;;5054244;28;20082;-73
2022/06/16 07:00:18;;;;;;;20.10;14.30;;;24.10;48.80;;;;;;5052168;28;20041;-70
2022/06/16 07:02:44;;;;;;;22.50;14.35;;;24.20;48.50;;;;;;5054196;28;20044;-70
2022/06/16 07:05:10;;;;;;;21.98;13.52;;;24.20;48.30;;;;;;5056205;28;20029;-69
2022/06/16 07:07:37;;;;;;;15.73;10.27;;;24.30;48.20;;;;;;5054302;28;20033;-75
2022/06/16 07:10:06;;;;;;;16.15;11.25;;;24.30;47.90;;;;;;5053268;28;20488;-74
2022/06/16 07:12:32;;;;;;;20.33;11.32;;;24.40;48.00;;;;;;5036858;28;20036;-74
2022/06/16 07:14:58;;;;;;;29.60;11.93;;;24.50;47.70;;;;;;5054615;28;20028;-75
2022/06/16 07:17:24;;;;;;;21.95;12.02;;;24.50;48.30;;;;;;5054817;28;20029;-76
2022/06/16 07:19:51;;;;;;;20.50;12.27;;;24.60;47.50;;;;;;5050428;28;20040;-75
2022/06/16 07:22:17;;;;;;;17.77;10.75;;;24.60;47.30;;;;;;5043141;28;20428;-75
2022/06/16 07:24:43;;;;;;;20.08;11.20;;;24.80;47.60;;;;;;5035215;28;20021;-74
2022/06/16 07:27:09;;;;;;;18.58;11.55;;;24.90;47.50;;;;;;5046873;28;20033;-75
2022/06/16 07:29:35;;;;;;;19.98;11.68;;;25.00;47.30;;;;;;5034872;28;20409;-75
2022/06/16 07:32:01;;;;;;;18.52;10.82;;;25.10;47.10;;;;;;5037326;28;20112;-75
2022/06/16 07:34:28;;;;;;;20.75;10.75;;;25.20;46.70;;;;;;5055987;28;20029;-75
2022/06/16 07:36:54;;;;;;;16.33;9.77;;;25.30;46.60;;;;;;5055797;28;20029;-75
2022/06/16 07:39:20;;;;;;;17.38;8.48;;;25.40;46.50;;;;;;5053937;28;20036;-75
2022/06/16 07:41:46;;;;;;;15.63;8.88;;;25.40;46.20;;;;;;5054513;28;20040;-75
2022/06/16 07:44:14;;;;;;;14.70;8.07;;;25.50;46.10;;;;;;5052697;28;20036;-75
2022/06/16 07:46:42;;;;;;;13.90;7.30;;;25.50;46.00;;;;;;5050167;28;20033;-75
2022/06/16 07:49:11;;;;;;;12.35;5.95;;;25.50;45.60;;;;;;5053979;28;20044;-75
2022/06/16 07:51:37;;;;;;;15.20;8.60;;;25.60;45.80;;;;;;5042262;28;20535;-75
2022/06/16 07:54:03;;;;;;;13.23;7.07;;;25.60;46.50;;;;;;5052414;28;20048;-73
2022/06/16 07:56:30;;;;;;;10.90;6.45;;;25.70;45.80;;;;;;5052038;28;20112;-74
2022/06/16 07:58:55;;;;;;;18.92;6.03;;;25.70;45.70;;;;;;5045730;28;20428;-74
2022/06/16 08:01:21;;;;;;;11.18;5.93;;;25.80;45.60;;;;;;5052933;28;20033;-74
2022/06/16 08:03:47;;;;;;;9.05;5.80;;;25.80;45.70;;;;;;5052441;28;20362;-75
2022/06/16 08:06:17;;;;;;;11.07;6.97;;;25.90;45.50;;;;;;5050251;28;20465;-74
2022/06/16 08:08:44;;;;;;;13.45;7.45;;;26.00;45.30;;;;;;5055022;28;20025;-75
2022/06/16 08:12:03;;;;;;;13.25;6.20;;;26.00;45.10;;;;;;5051839;28;20029;-75
2022/06/16 08:13:57;;;;;;;13.05;6.60;;;26.10;45.30;;;;;;5053956;28;20120;-75
2022/06/16 08:16:23;;;;;;;13.60;6.85;;;26.10;45.30;;;;;;5051158;28;20179;-75
2022/06/16 08:18:50;;;;;;;13.70;6.93;;;26.20;45.10;;;;;;5054786;28;20090;-74
2022/06/16 08:21:16;;;;;;;12.00;6.75;;;26.30;45.00;;;;;;5053873;28;20056;-75
2022/06/16 08:23:42;;;;;;;10.55;6.30;;;26.40;45.00;;;;;;5053625;28;20388;-75
2022/06/16 08:26:08;;;;;;;16.27;7.18;;;26.60;45.10;;;;;;5054824;28;20028;-75
2022/06/16 08:28:34;;;;;;;15.70;8.25;;;26.80;45.00;;;;;;5047777;28;20445;-73
2022/06/16 08:31:01;;;;;;;11.95;7.32;;;26.90;44.60;;;;;;5053143;28;20115;-75
2022/06/16 08:33:27;;;;;;;12.45;6.72;;;27.00;44.50;;;;;;5049833;28;20029;-75
2022/06/16 08:35:53;;;;;;;18.98;7.00;;;27.20;44.40;;;;;;5055477;28;20082;-75
2022/06/16 08:38:19;;;;;;;12.13;7.20;;;27.30;43.80;;;;;;5054470;28;20028;-75
2022/06/16 08:40:47;;;;;;;18.90;7.95;;;27.50;43.50;;;;;;5053890;28;20025;-74
2022/06/16 08:43:34;;;;;;;11.65;6.53;;;27.60;43.00;;;;;;5042020;28;20381;-74
2022/06/16 08:46:05;;;;;;;10.13;6.65;;;27.70;43.20;;;;;;5052248;28;20039;-75
2022/06/16 08:48:58;;;;;;;14.40;6.82;;;27.80;42.60;;;;;;5052553;28;20044;-73
2022/06/16 08:51:53;;;;;;;9.13;6.63;;;28.00;42.20;;;;;;5052415;28;20056;-74
2022/06/16 08:54:33;;;;;;;12.38;7.13;;;28.20;42.40;;;;;;5052662;28;20055;-77
2022/06/16 08:57:17;;;;;;;9.77;6.45;;;28.30;41.40;;;;;;5052820;28;20060;-73
2022/06/16 09:00:02;;;;;;;14.43;7.25;;;28.40;41.50;;;;;;5052286;28;20465;-75
2022/06/16 09:02:53;;;;;;;10.23;7.47;;;28.50;41.40;;;;;;5052622;28;20481;-74
2022/06/16 09:05:33;;;;;;;14.43;6.53;;;28.60;40.80;;;;;;5051780;28;20032;-78
2022/06/16 09:08:13;;;;;;;13.57;7.38;;;28.70;40.10;;;;;;5045123;28;20132;-74
2022/06/16 09:11:05;;;;;;;10.60;7.03;;;28.90;40.70;;;;;;5043016;28;20099;-74
2022/06/16 09:14:00;;;;;;;9.77;6.75;;;29.10;40.80;;;;;;5050999;28;20056;-74
2022/06/16 09:16:57;;;;;;;12.88;6.60;;;29.30;40.50;;;;;;5052234;28;20083;-75
2022/06/16 09:19:53;;;;;;;12.50;6.97;;;29.50;40.30;;;;;;5054097;28;20028;-75
2022/06/16 09:22:43;;;;;;;10.13;6.80;;;29.60;39.00;;;;;;5052573;28;20384;-75
2022/06/16 09:25:09;;;;;;;10.15;6.35;;;29.70;39.20;;;;;;5052602;28;20059;-75
2022/06/16 09:27:46;;;;;;;15.15;6.72;;;29.70;39.00;;;;;;5053812;28;20048;-75
2022/06/16 09:30:28;;;;;;;10.25;7.25;;;29.60;38.50;;;;;;5052425;28;20035;-75
2022/06/16 09:32:58;;;;;;;15.02;7.13;;;29.60;38.40;;;;;;5053729;28;20017;-75
2022/06/16 09:35:45;;;;;;;16.55;6.95;;;29.50;38.00;;;;;;5053752;28;20032;-75
2022/06/16 09:38:33;;;;;;;10.50;5.63;;;29.40;38.30;;;;;;5052327;28;20044;-75
2022/06/16 09:42:32;;;;;;;10.98;4.90;;;29.40;37.90;;;;;;5053933;28;20025;-76
2022/06/16 09:43:55;;;;;;;11.55;5.07;;;29.40;37.90;;;;;;5053272;28;20083;-76
2022/06/16 09:46:32;;;;;;;8.95;4.57;;;29.30;37.90;;;;;;5052122;28;20051;-75
2022/06/16 09:49:06;;;;;;;6.05;3.92;;;29.30;38.40;;;;;;5053430;28;20025;-75
2022/06/16 09:51:39;;;;;;;8.02;4.45;;;29.30;39.20;;;;;;5052139;28;20120;-76
2022/06/16 09:54:18;;;;;;;7.50;4.17;;;29.30;38.90;;;;;;5052214;28;20032;-75
2022/06/16 09:57:06;;;;;;;7.47;4.60;;;29.30;37.80;;;;;;5052158;28;20276;-74
2022/06/16 09:59:40;;;;;;;12.70;4.15;;;29.30;38.20;;;;;;5053554;28;20029;-76
2022/06/16 10:02:19;;;;;;;7.03;4.57;;;29.40;38.10;;;;;;5053247;28;20722;-75
2022/06/16 10:04:49;;;;;;;9.32;3.97;;;29.40;37.40;;;;;;5051969;28;20485;-75
2022/06/16 10:07:21;;;;;;;7.70;3.92;;;29.40;36.90;;;;;;5050165;28;20076;-75
2022/06/16 10:10:04;;;;;;;8.70;3.80;;;29.40;37.00;;;;;;5050671;28;20120;-73
2022/06/16 10:12:55;;;;;;;6.97;3.70;;;29.50;37.20;;;;;;5048806;28;20101;-73
2022/06/16 10:15:55;;;;;;;7.15;3.15;;;29.60;36.00;;;;;;5044889;28;20363;-73
2022/06/16 10:18:22;;;;;;;5.90;3.28;;;29.70;36.80;;;;;;5051771;28;20384;-73
2022/06/16 10:20:48;;;;;;;4.68;3.40;;;29.80;35.30;;;;;;5036677;28;20032;-74
2022/06/16 10:23:22;;;;;;;6.47;2.88;;;29.80;35.60;;;;;;5032062;28;20377;-73
2022/06/16 10:25:57;;;;;;;4.75;3.45;;;29.80;35.70;;;;;;5042694;28;20037;-73
2022/06/16 10:28:34;;;;;;;7.45;3.38;;;30.00;36.20;;;;;;5051769;28;20024;-73
2022/06/16 10:31:03;;;;;;;4.57;3.25;;;30.00;35.70;;;;;;5055831;28;20029;-73
2022/06/16 10:33:51;;;;;;;4.85;3.22;;;30.20;36.10;;;;;;5057346;28;20025;-73
2022/06/16 10:36:20;;;;;;;4.63;3.13;;;30.30;36.00;;;;;;5046038;28;20184;-73
2022/06/16 10:39:21;;;;;;;4.22;2.80;;;30.40;36.00;;;;;;5035857;28;20049;-73
2022/06/16 10:41:54;;;;;;;4.60;2.85;;;30.50;36.20;;;;;;5048199;28;20028;-75
2022/06/16 10:44:23;;;;;;;7.65;3.58;;;30.60;35.80;;;;;;5055549;28;20021;-73
2022/06/16 10:46:57;;;;;;;5.38;3.00;;;30.60;35.70;;;;;;5055668;28;20040;-73
2022/06/16 10:49:38;;;;;;;9.00;3.17;;;30.70;35.90;;;;;;5057478;28;20032;-72
2022/06/16 10:52:14;;;;;;;6.85;3.50;;;30.70;36.20;;;;;;5049516;28;20075;-74
2022/06/16 10:55:09;;;;;;;5.25;3.30;;;30.70;35.80;;;;;;5054439;28;20457;-75
2022/06/16 10:57:44;;;;;;;4.35;2.85;;;30.70;35.80;;;;;;5056318;28;20374;-77
2022/06/16 11:00:16;;;;;;;5.40;2.92;;;30.70;35.60;;;;;;5055569;28;20021;-74
2022/06/16 11:03:17;;;;;;;5.75;2.42;;;30.70;34.50;;;;;;5039924;28;20515;-73
2022/06/16 11:05:57;;;;;;;6.45;2.38;;;30.70;34.80;;;;;;5011529;28;20097;-73
2022/06/16 11:08:31;;;;;;;3.88;2.55;;;30.70;33.30;;;;;;5014780;28;20076;-73
2022/06/16 11:10:58;;;;;;;4.45;2.50;;;30.70;33.20;;;;;;5014626;28;20474;-74
2022/06/16 11:13:32;;;;;;;6.50;2.97;;;30.70;34.00;;;;;;4998014;28;20065;-73
2022/06/16 11:15:58;;;;;;;4.93;3.47;;;30.80;34.30;;;;;;5014394;28;20505;-74
2022/06/16 11:18:28;;;;;;;8.43;3.50;;;30.80;34.50;;;;;;4997947;28;20030;-72
2022/06/16 11:20:59;;;;;;;15.10;3.15;;;30.80;34.60;;;;;;4998118;28;20034;-71
2022/06/16 11:23:32;;;;;;;3.78;2.53;;;30.80;34.90;;;;;;4997954;28;20071;-71
2022/06/16 11:26:19;;;;;;;5.65;2.95;;;30.80;35.20;;;;;;4994114;28;20157;-72
2022/06/16 11:28:51;;;;;;;6.93;3.25;;;30.90;35.20;;;;;;4997712;28;20402;-73
2022/06/16 11:31:23;;;;;;;5.95;3.42;;;31.00;35.30;;;;;;5013298;28;20485;-72
2022/06/16 11:34:12;;;;;;;5.95;2.78;;;31.00;35.00;;;;;;4997847;28;20536;-73
2022/06/16 11:37:08;;;;;;;4.85;2.78;;;31.10;34.60;;;;;;4997906;28;20033;-72
2022/06/16 11:40:10;;;;;;;3.95;2.88;;;31.30;34.30;;;;;;5013344;28;20156;-72
2022/06/16 11:42:57;;;;;;;3.78;2.83;;;31.50;33.20;;;;;;5043903;28;20078;-73
2022/06/16 11:45:49;;;;;;;3.38;2.90;;;31.70;33.30;;;;;;5052752;28;20025;-73
2022/06/16 11:48:26;;;;;;;4.72;2.88;;;31.90;33.30;;;;;;5037426;28;20037;-74
2022/06/16 11:51:11;;;;;;;3.88;2.65;;;32.10;32.50;;;;;;5054972;28;20040;-74
2022/06/16 11:53:37;;;;;;;3.97;2.20;;;32.20;32.50;;;;;;5045392;28;20490;-74
2022/06/16 11:56:35;;;;;;;5.93;2.35;;;32.30;32.40;;;;;;5042089;28;20108;-73
2022/06/16 11:59:18;;;;;;;2.80;2.50;;;32.40;32.50;;;;;;5055542;28;20107;-73
2022/06/16 12:01:46;;;;;;;4.55;2.50;;;32.50;32.50;;;;;;5053827;28;20561;-73
2022/06/16 12:04:34;;;;;;;7.15;3.72;;;32.50;32.60;;;;;;5054062;28;20067;-73
2022/06/16 12:07:18;;;;;;;3.53;2.40;;;32.50;32.70;;;;;;5055092;28;20028;-73
2022/06/16 12:10:02;;;;;;;6.13;2.63;;;32.50;32.00;;;;;;5055322;28;20062;-72
2022/06/16 12:12:40;;;;;;;3.30;2.13;;;32.50;32.10;;;;;;5054008;28;20491;-72
2022/06/16 12:15:33;;;;;;;5.75;3.22;;;32.60;32.50;;;;;;5053986;28;20021;-73
2022/06/16 12:18:04;;;;;;;3.83;2.70;;;32.50;32.30;;;;;;5053838;28;20108;-73
2022/06/16 12:20:57;;;;;;;3.28;2.58;;;32.60;32.50;;;;;;5055064;28;20082;-73
2022/06/16 12:23:45;;;;;;;2.88;2.60;;;32.60;32.60;;;;;;5053558;28;20334;-74
2022/06/16 12:26:30;;;;;;;5.07;2.38;;;32.70;32.80;;;;;;5044902;28;20119;-73
2022/06/16 12:29:15;;;;;;;4.45;2.40;;;32.70;33.10;;;;;;5053172;28;20041;-76
2022/06/16 12:32:02;;;;;;;3.67;2.70;;;32.80;33.40;;;;;;5046008;28;20025;-75
2022/06/16 12:34:50;;;;;;;3.17;2.75;;;32.90;33.70;;;;;;5049073;28;20029;-74
2022/06/16 12:37:23;;;;;;;3.58;2.85;;;32.90;33.70;;;;;;5043927;28;20489;-75
2022/06/16 12:40:08;;;;;;;4.38;3.00;;;33.00;33.80;;;;;;5052919;28;20062;-75
2022/06/16 12:42:47;;;;;;;3.60;3.08;;;33.00;34.10;;;;;;5046344;28;20029;-73
2022/06/16 12:45:35;;;;;;;4.93;2.88;;;33.00;34.10;;;;;;5051659;28;20394;-73
2022/06/16 12:48:16;;;;;;;27.15;2.72;;;32.90;33.50;;;;;;5056783;28;20082;-74
2022/06/16 12:51:10;;;;;;;4.47;2.60;;;32.90;33.70;;;;;;5054504;28;20380;-74
2022/06/16 12:53:51;;;;;;;9.82;3.28;;;32.90;33.80;;;;;;5050263;28;20094;-73
2022/06/16 12:56:33;;;;;;;6.07;3.45;;;32.90;33.90;;;;;;5046084;28;20032;-76
2022/06/16 12:59:09;;;;;;;4.57;3.28;;;32.90;33.20;;;;;;5046197;28;20036;-73
2022/06/16 13:01:36;;;;;;;12.60;3.72;;;33.00;33.30;;;;;;5042563;28;20049;-72
2022/06/16 13:04:12;;;;;;;3.58;3.00;;;33.00;33.50;;;;;;5048644;28;20068;-73
2022/06/16 13:06:42;;;;;;;5.72;3.25;;;33.00;33.60;;;;;;5051252;28;20029;-75
2022/06/16 13:09:14;;;;;;;5.25;3.70;;;33.10;34.00;;;;;;5053480;28;20061;-73
2022/06/16 13:11:49;;;;;;;5.00;3.40;;;33.10;34.00;;;;;;5052951;28;20075;-73
2022/06/16 13:14:22;;;;;;;6.93;3.80;;;33.20;34.20;;;;;;5046113;28;20072;-73
2022/06/16 13:16:49;;;;;;;5.95;3.33;;;33.20;34.10;;;;;;5048278;28;20427;-72
2022/06/16 13:19:28;;;;;;;7.95;3.60;;;33.20;34.20;;;;;;5052317;28;20405;-72
2022/06/16 13:22:09;;;;;;;11.68;3.83;;;33.20;34.30;;;;;;5036480;28;20017;-74
2022/06/16 13:25:06;;;;;;;8.65;4.35;;;33.30;34.60;;;;;;5051201;28;20052;-72
2022/06/16 13:27:40;;;;;;;6.60;3.63;;;33.40;34.40;;;;;;5049418;28;20124;-72
2022/06/16 13:30:05;;;;;;;;;;;33.50;33.40;;;;;;5036396;28;20033;-72